createdAt,value
2023-01-10T00:00:51.587Z,94.33
2023-01-10T00:03:18.722Z,94.12
2023-01-10T00:05:45.510Z,94.02
2023-01-10T00:08:16.323Z,94.05
2023-01-10T00:10:42.868Z,94.18
2023-01-10T00:13:24.463Z,94.02
2023-01-10T00:15:53.034Z,93.72
2023-01-10T00:18:22.687Z,94.06
2023-01-10T00:20:49.644Z,93.71
2023-01-10T00:23:18.393Z,93.92
2023-01-10T00:25:45.550Z,93.99
2023-01-10T00:28:20.969Z,93.86
2023-01-10T00:31:04.436Z,94.23
2023-01-10T00:33:34.361Z,94.29
2023-01-10T00:36:02.296Z,94.46
2023-01-10T00:38:35.919Z,94.43
2023-01-10T00:41:03.598Z,94.21
2023-01-10T00:43:48.580Z,94.57
2023-01-10T00:46:15.144Z,94.31
2023-01-10T00:48:41.707Z,94.44
2023-01-10T00:51:10.623Z,94.58
2023-01-10T00:53:39.750Z,94.55
2023-01-10T00:56:06.709Z,93.93
2023-01-10T00:58:34.102Z,93.92
2023-01-10T01:01:03.205Z,93.43
2023-01-10T01:03:29.722Z,93.39
2023-01-10T01:05:56.333Z,93.01
2023-01-10T01:08:22.892Z,92.87
2023-01-10T01:10:49.672Z,93.06
2023-01-10T01:13:21.491Z,92.74
2023-01-10T01:15:50.309Z,92.83
2023-01-10T01:18:25.392Z,92.41
2023-01-10T01:20:56.869Z,92.31
2023-01-10T01:23:24.444Z,92.24
2023-01-10T01:25:52.174Z,92.04
2023-01-10T01:28:19.127Z,91.73
2023-01-10T01:30:50.488Z,92.19
2023-01-10T01:33:17.979Z,92.34
2023-01-10T01:35:46.835Z,91.95
2023-01-10T01:38:18.221Z,91.91
2023-01-10T01:40:45.076Z,91.89
2023-01-10T01:43:23.462Z,91.92
2023-01-10T01:45:50.528Z,92.08
2023-01-10T01:48:42.421Z,92.08
2023-01-10T01:51:21.134Z,92.40
2023-01-10T01:53:51.020Z,92.59
2023-01-10T01:56:27.872Z,92.55
2023-01-10T01:58:58.912Z,92.30
2023-01-10T02:01:27.983Z,92.70
2023-01-10T02:04:01.429Z,92.54
2023-01-10T02:06:28.097Z,92.12
2023-01-10T02:09:23.797Z,92.25
2023-01-10T02:11:50.874Z,92.37
2023-01-10T02:14:17.800Z,91.93
2023-01-10T02:16:44.485Z,92.33
2023-01-10T02:19:23.994Z,92.27
2023-01-10T02:22:15.375Z,92.24
2023-01-10T02:25:11.456Z,92.24
2023-01-10T02:27:48.412Z,92.22
2023-01-10T02:30:28.712Z,92.28
2023-01-10T02:33:17.017Z,92.33
2023-01-10T02:35:51.792Z,92.26
2023-01-10T02:38:37.259Z,92.39
2023-01-10T02:41:29.572Z,92.17
2023-01-10T02:44:27.797Z,92.43
2023-01-10T02:46:56.328Z,92.48
2023-01-10T02:49:22.869Z,92.94
2023-01-10T02:51:49.426Z,92.98
2023-01-10T02:54:21.472Z,93.50
2023-01-10T02:56:54.129Z,93.63
2023-01-10T02:59:44.891Z,93.95
2023-01-10T03:02:32.387Z,94.04
2023-01-10T03:05:11.439Z,93.86
2023-01-10T03:07:58.406Z,93.63
2023-01-10T03:10:43.660Z,93.52
2023-01-10T03:13:16.241Z,93.37
2023-01-10T03:15:45.318Z,93.11
2023-01-10T03:18:22.273Z,92.97
2023-01-10T03:20:52.475Z,93.08
2023-01-10T03:23:21.072Z,92.92
2023-01-10T03:25:53.293Z,93.12
2023-01-10T03:28:30.456Z,93.05
2023-01-10T03:30:59.920Z,92.94
2023-01-10T03:33:30.864Z,93.12
2023-01-10T03:36:30.978Z,93.10
2023-01-10T03:39:11.705Z,92.58
2023-01-10T03:41:46.765Z,92.79
2023-01-10T03:44:40.180Z,93.32
2023-01-10T03:47:09.652Z,93.12
2023-01-10T03:49:39.686Z,93.27
2023-01-10T03:52:09.600Z,93.43
2023-01-10T03:54:36.175Z,93.37
2023-01-10T03:57:02.974Z,93.40
2023-01-10T03:59:32.147Z,93.05
2023-01-10T04:01:58.943Z,93.50
2023-01-10T04:04:28.034Z,93.07
2023-01-10T04:06:54.739Z,93.43
2023-01-10T04:09:21.538Z,93.18
2023-01-10T04:11:48.172Z,93.27
2023-01-10T04:14:14.672Z,93.36
2023-01-10T04:16:43.633Z,92.99
2023-01-10T04:19:10.204Z,93.07
2023-01-10T04:21:36.776Z,92.89
2023-01-10T04:24:03.515Z,93.28
2023-01-10T04:26:30.136Z,93.61
2023-01-10T04:28:56.717Z,94.02
2023-01-10T04:31:29.188Z,93.92
2023-01-10T04:33:55.809Z,93.82
2023-01-10T04:36:22.442Z,93.89
2023-01-10T04:38:48.981Z,94.10
2023-01-10T04:41:17.756Z,93.55
2023-01-10T04:43:44.397Z,93.72
2023-01-10T04:46:10.988Z,93.53
2023-01-10T04:48:37.664Z,93.22
2023-01-10T04:51:04.511Z,93.50
2023-01-10T04:53:31.229Z,93.42
2023-01-10T04:56:08.645Z,93.65
2023-01-10T04:58:39.233Z,93.34
2023-01-10T05:01:17.849Z,93.26
2023-01-10T05:03:48.192Z,93.51
2023-01-10T05:06:15.167Z,93.80
2023-01-10T05:08:41.736Z,94.19
2023-01-10T05:11:10.493Z,93.94
2023-01-10T05:13:37.643Z,94.66
2023-01-10T05:16:04.788Z,94.79
2023-01-10T05:18:31.934Z,95.05
2023-01-10T05:21:03.826Z,94.83
2023-01-10T05:23:33.066Z,94.97
2023-01-10T05:26:09.560Z,95.17
2023-01-10T05:28:36.451Z,94.95
2023-01-10T05:31:10.933Z,94.84
2023-01-10T05:33:37.813Z,94.54
2023-01-10T05:36:06.704Z,94.02
2023-01-10T05:38:34.242Z,94.17
2023-01-10T05:41:01.317Z,94.28
2023-01-10T05:43:31.261Z,94.52
2023-01-10T05:45:57.864Z,94.04
2023-01-10T05:48:26.720Z,93.97
2023-01-10T05:50:54.288Z,93.82
2023-01-10T05:53:20.931Z,93.84
2023-01-10T05:55:54.209Z,93.67
2023-01-10T05:58:20.876Z,93.70
2023-01-10T06:00:47.800Z,93.76
2023-01-10T06:03:14.420Z,93.76
2023-01-10T06:05:40.932Z,93.77
2023-01-10T06:08:07.546Z,93.98
2023-01-10T06:10:36.407Z,93.66
2023-01-10T06:13:05.035Z,93.87
2023-01-10T06:15:35.354Z,93.46
2023-01-10T06:18:02.251Z,93.16
2023-01-10T06:20:31.723Z,93.38
2023-01-10T06:23:02.317Z,93.23
2023-01-10T06:25:29.445Z,93.39
2023-01-10T06:27:56.246Z,93.14
2023-01-10T06:30:23.433Z,93.02
2023-01-10T06:32:52.454Z,93.20
2023-01-10T06:35:19.068Z,93.11
2023-01-10T06:37:45.783Z,93.36
2023-01-10T06:40:12.651Z,93.10
2023-01-10T06:42:40.555Z,93.26
2023-01-10T06:45:10.479Z,93.45
2023-01-10T06:47:37.808Z,93.35
2023-01-10T06:50:05.445Z,93.58
2023-01-10T06:52:34.281Z,93.79
2023-01-10T06:55:03.068Z,94.15
2023-01-10T06:57:33.156Z,94.02
2023-01-10T06:59:59.686Z,94.05
2023-01-10T07:02:26.195Z,94.75
2023-01-10T07:04:52.757Z,94.77
2023-01-10T07:07:19.472Z,94.94
2023-01-10T07:09:48.363Z,94.58
2023-01-10T07:12:15.146Z,94.21
2023-01-10T07:14:44.365Z,94.68
2023-01-10T07:17:11.145Z,94.92
2023-01-10T07:19:37.710Z,94.99
2023-01-10T07:22:04.318Z,94.66
2023-01-10T07:24:30.891Z,95.02
2023-01-10T07:26:57.504Z,94.38
2023-01-10T07:29:24.075Z,94.19
2023-01-10T07:31:51.704Z,93.96
2023-01-10T07:34:20.994Z,93.82
2023-01-10T07:36:47.588Z,93.40
2023-01-10T07:39:17.138Z,93.67
2023-01-10T07:41:43.922Z,92.99
2023-01-10T07:44:10.552Z,93.08
2023-01-10T07:46:37.158Z,92.63
2023-01-10T07:49:03.682Z,92.90
2023-01-10T07:51:30.231Z,92.13
2023-01-10T07:53:56.727Z,92.89
2023-01-10T07:56:23.524Z,92.69
2023-01-10T07:58:52.487Z,92.68
2023-01-10T08:01:19.092Z,92.71
2023-01-10T08:03:45.683Z,92.62
2023-01-10T08:06:16.717Z,92.28
2023-01-10T08:08:43.473Z,92.29
2023-01-10T08:11:10.005Z,91.94
2023-01-10T08:13:36.901Z,91.72
2023-01-10T08:16:08.462Z,91.74
2023-01-10T08:18:35.378Z,91.54
2023-01-10T08:21:01.987Z,91.74
2023-01-10T08:23:28.557Z,91.59
2023-01-10T08:25:58.882Z,91.90
2023-01-10T08:28:25.461Z,91.60
2023-01-10T08:30:55.728Z,91.41
2023-01-10T08:33:23.954Z,91.44
2023-01-10T08:35:51.120Z,91.49
2023-01-10T08:38:17.699Z,91.25
2023-01-10T08:40:44.262Z,91.26
2023-01-10T08:43:12.695Z,91.21
2023-01-10T08:45:39.857Z,91.03
2023-01-10T08:48:11.972Z,91.13
2023-01-10T08:50:38.567Z,90.76
2023-01-10T08:53:05.402Z,90.75
2023-01-10T08:55:32.049Z,90.51
2023-01-10T08:58:02.628Z,90.64
2023-01-10T09:00:31.785Z,90.50
2023-01-10T09:02:58.590Z,90.66
2023-01-10T09:05:28.504Z,90.59
2023-01-10T09:08:00.386Z,90.57
2023-01-10T09:10:28.823Z,90.25
2023-01-10T09:12:55.686Z,90.31
2023-01-10T09:15:33.735Z,90.34
2023-01-10T09:18:02.609Z,90.28
2023-01-10T09:20:29.810Z,90.03
2023-01-10T09:22:58.475Z,90.23
2023-01-10T09:25:25.537Z,90.24
2023-01-10T09:28:00.003Z,89.99
2023-01-10T09:30:28.083Z,90.39
2023-01-10T09:32:55.870Z,90.17
2023-01-10T09:35:23.649Z,90.22
2023-01-10T09:37:50.496Z,90.37
2023-01-10T09:40:22.468Z,90.12
2023-01-10T09:43:17.506Z,90.20
2023-01-10T09:45:57.947Z,89.91
2023-01-10T09:48:36.227Z,89.91
2023-01-10T09:51:23.136Z,89.72
2023-01-10T09:53:53.809Z,89.26
2023-01-10T09:56:22.839Z,89.36
2023-01-10T09:58:50.100Z,89.44
2023-01-10T10:01:21.835Z,89.09
2023-01-10T10:04:15.822Z,89.28
2023-01-10T10:06:49.386Z,89.12
2023-01-10T10:09:23.343Z,89.21
2023-01-10T10:12:25.371Z,88.98
2023-01-10T10:15:00.955Z,88.43
2023-01-10T10:17:46.305Z,88.54
2023-01-10T10:20:30.587Z,88.51
2023-01-10T10:23:03.309Z,88.27
2023-01-10T10:25:58.679Z,88.43
2023-01-10T10:28:53.819Z,88.44
2023-01-10T10:31:21.853Z,88.12
2023-01-10T10:34:09.017Z,88.08
2023-01-10T10:36:57.909Z,88.10
2023-01-10T10:39:59.417Z,88.13
2023-01-10T10:42:36.401Z,88.23
2023-01-10T10:45:07.231Z,88.11
2023-01-10T10:47:39.067Z,88.07
2023-01-10T10:50:16.271Z,88.37
2023-01-10T10:52:46.828Z,88.16
2023-01-10T10:55:17.128Z,88.15
2023-01-10T10:57:59.408Z,88.06
2023-01-10T11:00:29.537Z,88.07
2023-01-10T11:03:07.755Z,87.86
2023-01-10T11:05:42.386Z,87.83
2023-01-10T11:08:15.018Z,87.88
2023-01-10T11:10:44.518Z,87.71
2023-01-10T11:13:19.468Z,87.71
2023-01-10T11:15:48.272Z,87.91
2023-01-10T11:18:26.595Z,87.89
2023-01-10T11:21:04.866Z,87.58
2023-01-10T11:23:40.601Z,87.45
2023-01-10T11:26:10.922Z,87.73
2023-01-10T11:28:38.377Z,87.68
2023-01-10T11:31:05.087Z,87.60
2023-01-10T11:33:35.815Z,87.71
2023-01-10T11:36:10.549Z,87.46
2023-01-10T11:38:37.174Z,87.61
2023-01-10T11:41:25.236Z,87.47
2023-01-10T11:44:11.728Z,87.77
2023-01-10T11:46:44.185Z,87.78
2023-01-10T11:49:21.159Z,87.39
2023-01-10T11:51:56.289Z,87.68
2023-01-10T11:54:25.951Z,87.48
2023-01-10T11:57:16.565Z,87.61
2023-01-10T12:00:00.373Z,87.65
2023-01-10T12:02:35.879Z,87.70
2023-01-10T12:05:11.023Z,87.63
2023-01-10T12:08:06.390Z,87.39
2023-01-10T12:10:34.516Z,87.38
2023-01-10T12:13:21.358Z,87.33
2023-01-10T12:15:49.389Z,87.18
2023-01-10T12:18:17.797Z,87.26
2023-01-10T12:20:51.881Z,87.35
2023-01-10T12:23:24.311Z,87.49
2023-01-10T12:25:57.505Z,87.35
2023-01-10T12:28:36.380Z,87.07
2023-01-10T12:31:05.443Z,87.51
2023-01-10T12:33:41.254Z,87.37
2023-01-10T12:36:34.680Z,87.43
2023-01-10T12:39:25.135Z,87.50
2023-01-10T12:42:16.454Z,87.36
2023-01-10T12:44:47.737Z,87.62
2023-01-10T12:47:55.584Z,87.31
2023-01-10T12:50:37.101Z,87.53
2023-01-10T12:53:06.617Z,87.40
2023-01-10T12:55:41.681Z,87.27
2023-01-10T12:58:21.728Z,87.35
2023-01-10T13:01:01.923Z,87.74
2023-01-10T13:03:33.436Z,86.92
2023-01-10T13:06:01.104Z,87.48
2023-01-10T13:08:32.239Z,87.10
2023-01-10T13:11:03.102Z,87.20
2023-01-10T13:13:48.573Z,87.43
2023-01-10T13:16:33.582Z,86.95
2023-01-10T13:19:12.335Z,87.23
2023-01-10T13:21:41.137Z,86.86
2023-01-10T13:24:23.594Z,87.14
2023-01-10T13:26:53.722Z,86.93
2023-01-10T13:29:26.760Z,86.95
2023-01-10T13:31:57.390Z,86.64
2023-01-10T13:34:27.989Z,86.82
2023-01-10T13:37:04.619Z,86.59
2023-01-10T13:39:40.108Z,86.66
2023-01-10T13:42:25.152Z,86.70
2023-01-10T13:45:03.368Z,86.30
2023-01-10T13:47:46.209Z,86.51
2023-01-10T13:50:25.442Z,86.04
2023-01-10T13:53:14.672Z,86.46
2023-01-10T13:55:46.400Z,85.96
2023-01-10T13:58:16.117Z,86.12
2023-01-10T14:01:05.578Z,86.20
2023-01-10T14:03:58.514Z,86.68
2023-01-10T14:06:28.178Z,86.42
2023-01-10T14:08:56.222Z,86.77
2023-01-10T14:11:26.192Z,86.55
2023-01-10T14:13:57.208Z,87.02
2023-01-10T14:16:45.493Z,87.51
2023-01-10T14:19:34.155Z,87.29
2023-01-10T14:22:03.910Z,87.29
2023-01-10T14:24:45.334Z,87.73
2023-01-10T14:27:17.708Z,87.31
2023-01-10T14:29:53.111Z,87.64
2023-01-10T14:32:43.691Z,87.74
2023-01-10T14:35:18.429Z,87.89
2023-01-10T14:37:53.136Z,87.97
2023-01-10T14:40:28.590Z,88.06
2023-01-10T14:42:58.596Z,88.35
2023-01-10T14:45:45.441Z,88.36
2023-01-10T14:48:26.966Z,88.77
2023-01-10T14:51:30.197Z,88.52
2023-01-10T14:54:03.709Z,89.16
2023-01-10T14:56:36.712Z,89.06
2023-01-10T14:59:29.992Z,89.27
2023-01-10T15:01:59.166Z,89.21
2023-01-10T15:04:33.733Z,89.24
2023-01-10T15:07:11.714Z,89.24
2023-01-10T15:09:47.434Z,89.31
2023-01-10T15:12:16.462Z,89.55
2023-01-10T15:14:43.399Z,89.97
2023-01-10T15:17:20.080Z,89.87
2023-01-10T15:19:52.434Z,90.05
2023-01-10T15:22:26.155Z,90.19
2023-01-10T15:25:20.041Z,90.37
2023-01-10T15:27:50.245Z,90.22
2023-01-10T15:30:25.940Z,90.22
2023-01-10T15:33:02.933Z,90.25
2023-01-10T15:35:36.233Z,90.36
2023-01-10T15:38:11.691Z,90.42
2023-01-10T15:40:40.347Z,90.72
2023-01-10T15:43:27.444Z,90.71
2023-01-10T15:45:56.986Z,90.83
2023-01-10T15:48:26.861Z,90.88
2023-01-10T15:51:03.816Z,90.83
2023-01-10T15:53:50.100Z,91.23
2023-01-10T15:56:20.840Z,91.01
2023-01-10T15:58:50.513Z,91.11
2023-01-10T16:01:17.306Z,91.20
2023-01-10T16:03:59.482Z,91.67
2023-01-10T16:06:27.779Z,91.66
2023-01-10T16:08:56.275Z,91.48
2023-01-10T16:11:57.961Z,91.69
2023-01-10T16:14:24.630Z,91.67
2023-01-10T16:16:53.964Z,91.55
2023-01-10T16:19:20.482Z,91.65
2023-01-10T16:21:51.073Z,91.83
2023-01-10T16:24:22.969Z,92.19
2023-01-10T16:26:50.801Z,92.14
2023-01-10T16:29:17.742Z,92.10
2023-01-10T16:31:44.393Z,92.00
2023-01-10T16:34:13.177Z,92.29
2023-01-10T16:36:41.282Z,92.27
2023-01-10T16:39:14.740Z,92.54
2023-01-10T16:42:08.314Z,92.54
2023-01-10T16:44:35.436Z,92.14
2023-01-10T16:47:07.221Z,92.34
2023-01-10T16:49:34.164Z,92.20
2023-01-10T16:52:00.731Z,92.52
2023-01-10T16:54:28.228Z,92.44
2023-01-10T16:56:54.874Z,92.57
2023-01-10T16:59:24.334Z,92.69
2023-01-10T17:01:54.568Z,92.52
2023-01-10T17:04:35.640Z,92.75
2023-01-10T17:07:02.289Z,92.54
2023-01-10T17:09:30.667Z,92.58
2023-01-10T17:12:04.115Z,92.92
2023-01-10T17:14:35.822Z,92.88
2023-01-10T17:17:03.298Z,93.16
2023-01-10T17:19:32.081Z,92.96
2023-01-10T17:22:00.339Z,92.97
2023-01-10T17:24:29.647Z,92.84
2023-01-10T17:26:56.279Z,93.22
2023-01-10T17:29:23.485Z,93.07
2023-01-10T17:31:50.353Z,93.14
2023-01-10T17:34:16.963Z,93.17
2023-01-10T17:36:43.567Z,93.36
2023-01-10T17:39:10.148Z,93.35
2023-01-10T17:41:36.760Z,93.76
2023-01-10T17:44:03.368Z,93.37
2023-01-10T17:46:30.052Z,93.22
2023-01-10T17:48:56.807Z,93.30
2023-01-10T17:51:24.877Z,93.36
2023-01-10T17:53:51.783Z,93.37
2023-01-10T17:56:18.443Z,93.28
2023-01-10T17:58:45.485Z,93.46
2023-01-10T18:01:24.706Z,93.47
2023-01-10T18:03:51.921Z,93.39
2023-01-10T18:06:24.089Z,93.65
2023-01-10T18:08:51.388Z,93.84
2023-01-10T18:11:18.070Z,93.85
2023-01-10T18:13:44.688Z,93.70
2023-01-10T18:16:11.247Z,93.60
2023-01-10T18:18:37.802Z,93.77
2023-01-10T18:21:05.389Z,93.77
2023-01-10T18:23:33.334Z,93.65
2023-01-10T18:26:03.064Z,93.73
2023-01-10T18:28:40.822Z,94.19
2023-01-10T18:31:13.029Z,94.14
2023-01-10T18:33:42.914Z,94.13
2023-01-10T18:36:14.738Z,94.25
2023-01-10T18:38:41.843Z,94.20
2023-01-10T18:41:08.797Z,94.00
2023-01-10T18:43:37.621Z,93.84
2023-01-10T18:46:10.304Z,94.40
2023-01-10T18:48:39.209Z,93.95
2023-01-10T18:51:06.519Z,94.11
2023-01-10T18:53:33.306Z,94.05
2023-01-10T18:56:18.789Z,94.31
2023-01-10T18:58:45.382Z,94.01
2023-01-10T19:01:15.012Z,94.16
2023-01-10T19:03:42.552Z,94.10
2023-01-10T19:06:11.277Z,94.47
2023-01-10T19:08:39.225Z,94.46
2023-01-10T19:11:13.967Z,94.35
2023-01-10T19:13:41.898Z,94.50
2023-01-10T19:16:20.713Z,94.54
2023-01-10T19:18:53.069Z,94.69
2023-01-10T19:21:20.411Z,94.22
2023-01-10T19:23:51.706Z,94.56
2023-01-10T19:26:18.637Z,94.83
2023-01-10T19:28:45.650Z,94.77
2023-01-10T19:31:21.747Z,94.64
2023-01-10T19:33:50.383Z,94.94
2023-01-10T19:36:18.965Z,94.71
2023-01-10T19:38:46.162Z,94.78
2023-01-10T19:41:14.426Z,95.02
2023-01-10T19:43:40.962Z,95.33
2023-01-10T19:46:09.082Z,94.77
2023-01-10T19:48:38.080Z,95.13
2023-01-10T19:51:12.056Z,95.08
2023-01-10T19:53:44.998Z,94.80
2023-01-10T19:56:13.812Z,95.32
2023-01-10T19:58:40.410Z,95.27
2023-01-10T20:01:12.776Z,95.13
2023-01-10T20:03:42.187Z,94.88
2023-01-10T20:06:14.231Z,95.21
2023-01-10T20:08:41.434Z,95.19
2023-01-10T20:11:11.282Z,95.06
2023-01-10T20:13:44.460Z,95.16
2023-01-10T20:16:13.207Z,95.56
2023-01-10T20:18:39.973Z,95.43
2023-01-10T20:21:08.909Z,95.35
2023-01-10T20:23:37.408Z,95.38
2023-01-10T20:26:12.079Z,95.46
2023-01-10T20:28:39.797Z,95.22
2023-01-10T20:31:08.925Z,95.70
2023-01-10T20:33:35.777Z,95.52
2023-01-10T20:36:08.365Z,95.28
2023-01-10T20:38:36.833Z,95.59
2023-01-10T20:41:07.326Z,96.16
2023-01-10T20:43:34.354Z,95.46
2023-01-10T20:46:10.907Z,96.07
2023-01-10T20:48:38.467Z,95.74
2023-01-10T20:51:07.850Z,95.48
2023-01-10T20:53:35.399Z,95.60
2023-01-10T20:56:07.279Z,95.82
2023-01-10T20:58:35.109Z,95.82
2023-01-10T21:01:02.629Z,95.74
2023-01-10T21:03:32.158Z,96.02
2023-01-10T21:05:59.464Z,96.14
2023-01-10T21:08:29.801Z,95.97
2023-01-10T21:10:59.658Z,96.00
2023-01-10T21:13:26.974Z,96.40
2023-01-10T21:15:55.503Z,96.12
2023-01-10T21:18:24.787Z,96.17
2023-01-10T21:20:56.699Z,96.45
2023-01-10T21:23:25.411Z,96.26
2023-01-10T21:25:52.703Z,96.55
2023-01-10T21:28:20.070Z,96.61
2023-01-10T21:30:49.905Z,96.53
2023-01-10T21:33:19.108Z,96.54
2023-01-10T21:35:53.704Z,96.60
2023-01-10T21:38:20.853Z,96.77
2023-01-10T21:40:47.421Z,97.00
2023-01-10T21:43:14.027Z,96.34
2023-01-10T21:45:40.704Z,97.02
2023-01-10T21:48:07.230Z,97.21
2023-01-10T21:50:33.883Z,97.08
2023-01-10T21:53:01.301Z,97.29
2023-01-10T21:55:28.451Z,96.98
2023-01-10T21:57:55.037Z,97.16
2023-01-10T22:00:21.876Z,97.41
2023-01-10T22:02:48.461Z,97.36
2023-01-10T22:05:15.032Z,97.34
2023-01-10T22:07:41.702Z,97.63
2023-01-10T22:10:09.069Z,97.64
2023-01-10T22:12:36.726Z,97.19
2023-01-10T22:15:03.929Z,97.37
2023-01-10T22:17:30.583Z,97.75
2023-01-10T22:19:57.251Z,97.73
2023-01-10T22:22:26.045Z,97.53
2023-01-10T22:24:52.623Z,97.44
2023-01-10T22:27:24.664Z,97.96
2023-01-10T22:29:51.280Z,98.16
2023-01-10T22:32:22.748Z,98.02
2023-01-10T22:34:49.237Z,98.01
2023-01-10T22:37:16.091Z,98.33
2023-01-10T22:39:42.646Z,97.81
2023-01-10T22:42:09.182Z,98.22
2023-01-10T22:44:35.715Z,98.35
2023-01-10T22:47:04.836Z,98.10
2023-01-10T22:49:31.340Z,98.21
2023-01-10T22:52:00.191Z,98.11
2023-01-10T22:54:26.838Z,98.38
2023-01-10T22:56:53.395Z,98.23
2023-01-10T22:59:22.477Z,98.40
2023-01-10T23:01:51.483Z,98.33
2023-01-10T23:04:20.274Z,98.17
2023-01-10T23:06:46.978Z,98.56
2023-01-10T23:09:15.742Z,98.56
2023-01-10T23:11:42.279Z,98.79
2023-01-10T23:14:08.809Z,98.99
2023-01-10T23:16:35.428Z,98.71
2023-01-10T23:19:02.227Z,98.66
2023-01-10T23:21:31.055Z,98.84
2023-01-10T23:23:57.830Z,98.89
2023-01-10T23:26:26.524Z,98.93
2023-01-10T23:28:53.320Z,99.07
2023-01-10T23:31:22.750Z,99.16
2023-01-10T23:33:50.251Z,99.09
2023-01-10T23:36:17.704Z,99.03
2023-01-10T23:38:44.563Z,98.76
2023-01-10T23:41:11.515Z,99.24
2023-01-10T23:43:38.129Z,99.32
2023-01-10T23:46:06.450Z,99.46
2023-01-10T23:48:33.502Z,99.19
2023-01-10T23:51:00.090Z,99.25
2023-01-10T23:53:26.727Z,99.38
2023-01-10T23:55:53.453Z,99.60
2023-01-10T23:58:20.395Z,99.59
